createdAt,value
2019-04-28T00:02:27.968Z,10.87
2019-04-28T00:05:01.479Z,10.94
2019-04-28T00:07:33.130Z,11.01
2019-04-28T00:10:05.557Z,11.08
2019-04-28T00:12:38.177Z,11.11
2019-04-28T00:15:11.468Z,11.15
2019-04-28T00:17:43.233Z,11.23
2019-04-28T00:20:21.266Z,11.23
2019-04-28T00:23:01.710Z,11.22
2019-04-28T00:25:38.232Z,11.21
2019-04-28T00:28:11.558Z,11.22
2019-04-28T00:30:43.520Z,11.34
2019-04-28T00:33:15.155Z,11.40
2019-04-28T00:35:46.968Z,11.40
2019-04-28T00:38:21.495Z,11.37
2019-04-28T00:40:53.483Z,11.39
2019-04-28T00:43:25.273Z,11.42
2019-04-28T00:45:57.041Z,11.42
2019-04-28T00:48:30.934Z,11.55
2019-04-28T00:51:02.884Z,11.50
2019-04-28T00:53:34.521Z,11.48
2019-04-28T00:56:06.374Z,11.48
2019-04-28T00:58:38.160Z,11.48
2019-04-28T01:01:12.756Z,11.48
2019-04-28T01:03:44.543Z,11.47
2019-04-28T01:06:16.283Z,11.44
2019-04-28T01:08:48.354Z,11.46
2019-04-28T01:11:21.735Z,11.45
2019-04-28T01:13:54.068Z,11.45
2019-04-28T01:16:35.306Z,11.44
2019-04-28T01:19:12.599Z,11.42
2019-04-28T01:22:01.558Z,11.33
2019-04-28T01:24:33.421Z,11.15
2019-04-28T01:27:06.867Z,11.13
2019-04-28T01:29:40.312Z,10.95
2019-04-28T01:32:21.753Z,10.85
2019-04-28T01:34:54.125Z,10.87
2019-04-28T01:37:25.840Z,10.88
2019-04-28T01:39:59.556Z,10.88
2019-04-28T01:42:30.887Z,10.94
2019-04-28T01:45:02.996Z,10.95
2019-04-28T01:47:35.827Z,10.99
2019-04-28T01:50:07.832Z,11.08
2019-04-28T01:52:40.067Z,11.08
2019-04-28T01:55:14.039Z,11.15
2019-04-28T01:57:45.851Z,11.13
2019-04-28T02:00:25.083Z,11.18
2019-04-28T02:02:53.137Z,11.16
2019-04-28T02:05:24.887Z,11.22
2019-04-28T02:07:56.577Z,11.27
2019-04-28T02:10:30.104Z,11.32
2019-04-28T02:13:01.764Z,11.36
2019-04-28T02:15:33.556Z,11.41
2019-04-28T02:18:05.337Z,11.48
2019-04-28T02:20:39.759Z,11.56
2019-04-28T02:23:17.378Z,11.65
2019-04-28T02:25:49.783Z,11.72
2019-04-28T02:28:21.448Z,11.84
2019-04-28T02:30:53.785Z,11.87
2019-04-28T02:33:26.240Z,11.93
2019-04-28T02:35:57.987Z,12.00
2019-04-28T02:38:33.951Z,12.00
2019-04-28T02:41:03.272Z,12.02
2019-04-28T02:43:35.177Z,12.06
2019-04-28T02:46:06.784Z,12.05
2019-04-28T02:48:40.427Z,12.05
2019-04-28T02:51:25.250Z,12.00
2019-04-28T02:53:57.003Z,12.00
2019-04-28T02:56:30.817Z,12.04
2019-04-28T02:59:02.255Z,12.08
2019-04-28T03:01:35.573Z,12.16
2019-04-28T03:04:07.287Z,12.23
2019-04-28T03:06:40.739Z,12.34
2019-04-28T03:09:12.777Z,12.39
2019-04-28T03:11:44.849Z,12.43
2019-04-28T03:14:16.571Z,12.45
2019-04-28T03:16:51.010Z,12.44
2019-04-28T03:19:22.015Z,12.43
2019-04-28T03:21:53.671Z,12.42
2019-04-28T03:24:25.605Z,12.44
2019-04-28T03:27:06.090Z,12.44
2019-04-28T03:30:02.719Z,12.46
2019-04-28T03:32:52.054Z,12.46
2019-04-28T03:35:13.874Z,12.46
2019-04-28T03:37:45.685Z,12.50
2019-04-28T03:40:17.489Z,12.50
2019-04-28T03:42:51.360Z,12.48
2019-04-28T03:45:30.166Z,12.58
2019-04-28T03:48:01.469Z,12.52
2019-04-28T03:50:33.215Z,12.51
2019-04-28T03:53:04.981Z,12.57
2019-04-28T03:55:36.762Z,12.57
2019-04-28T03:58:10.387Z,12.61
2019-04-28T04:00:42.488Z,12.68
2019-04-28T04:03:14.633Z,12.65
2019-04-28T04:05:46.423Z,12.62
2019-04-28T04:08:20.848Z,12.63
2019-04-28T04:11:01.331Z,12.59
2019-04-28T04:13:54.717Z,12.60
2019-04-28T04:16:50.090Z,12.66
2019-04-28T04:19:21.420Z,12.67
2019-04-28T04:21:53.201Z,12.70
2019-04-28T04:24:24.873Z,12.74
2019-04-28T04:26:56.532Z,12.75
2019-04-28T04:29:30.853Z,12.85
2019-04-28T04:32:11.585Z,12.96
2019-04-28T04:34:35.302Z,13.05
2019-04-28T04:37:07.040Z,13.14
2019-04-28T04:39:40.758Z,13.28
2019-04-28T04:42:12.577Z,13.34
2019-04-28T04:44:44.857Z,13.40
2019-04-28T04:47:16.618Z,13.60
2019-04-28T04:49:50.473Z,13.72
2019-04-28T04:52:21.871Z,13.76
2019-04-28T04:54:53.741Z,13.90
2019-04-28T04:57:26.029Z,13.89
2019-04-28T04:59:59.878Z,13.85
2019-04-28T05:02:47.717Z,13.89
2019-04-28T05:05:24.856Z,13.86
2019-04-28T05:07:57.160Z,13.90
2019-04-28T05:10:30.384Z,13.86
2019-04-28T05:13:03.781Z,13.80
2019-04-28T05:15:35.644Z,13.80
2019-04-28T05:18:07.517Z,13.82
2019-04-28T05:20:40.350Z,13.91
2019-04-28T05:23:30.879Z,14.05
2019-04-28T05:26:08.123Z,14.17
2019-04-28T05:28:40.745Z,14.34
2019-04-28T05:31:13.590Z,14.42
2019-04-28T05:33:43.185Z,14.50
2019-04-28T05:36:14.793Z,14.59
2019-04-28T05:38:46.587Z,14.70
2019-04-28T05:41:19.635Z,14.81
2019-04-28T05:43:52.302Z,14.97
2019-04-28T05:46:24.160Z,15.04
2019-04-28T05:49:29.857Z,15.16
2019-04-28T05:52:09.637Z,15.24
2019-04-28T05:54:49.745Z,15.32
2019-04-28T05:57:40.123Z,15.32
2019-04-28T06:00:31.167Z,15.26
2019-04-28T06:03:04.317Z,15.28
2019-04-28T06:05:36.170Z,15.44
2019-04-28T06:08:30.333Z,15.70
2019-04-28T06:11:20.932Z,15.91
2019-04-28T06:13:53.845Z,15.97
2019-04-28T06:16:25.795Z,15.95
2019-04-28T06:18:57.616Z,15.93
2019-04-28T06:21:29.490Z,15.96
2019-04-28T06:24:02.266Z,15.95
2019-04-28T06:26:34.061Z,16.08
2019-04-28T06:29:05.931Z,16.09
2019-04-28T06:31:37.797Z,16.16
2019-04-28T06:34:10.614Z,16.29
2019-04-28T06:36:42.453Z,16.36
2019-04-28T06:39:14.574Z,16.37
2019-04-28T06:41:46.379Z,16.42
2019-04-28T06:44:18.188Z,16.48
2019-04-28T06:46:49.849Z,16.61
2019-04-28T06:49:22.885Z,16.65
2019-04-28T06:51:54.573Z,16.69
2019-04-28T06:54:26.759Z,16.90
2019-04-28T06:57:01.528Z,16.97
2019-04-28T06:59:33.433Z,17.13
2019-04-28T07:02:05.425Z,17.12
2019-04-28T07:04:37.334Z,17.22
2019-04-28T07:07:09.065Z,17.25
2019-04-28T07:09:41.763Z,17.26
2019-04-28T07:12:13.588Z,17.26
2019-04-28T07:14:45.357Z,17.29
2019-04-28T07:17:17.202Z,17.16
2019-04-28T07:19:55.017Z,17.22
2019-04-28T07:22:28.555Z,17.42
2019-04-28T07:25:00.283Z,17.58
2019-04-28T07:27:32.370Z,17.69
2019-04-28T07:30:04.853Z,17.73
2019-04-28T07:32:36.784Z,17.80
2019-04-28T07:35:09.042Z,17.76
2019-04-28T07:37:43.050Z,17.69
2019-04-28T07:40:15.199Z,17.58
2019-04-28T07:42:47.458Z,17.52
2019-04-28T07:45:19.167Z,17.52
2019-04-28T07:47:51.084Z,17.55
2019-04-28T07:50:22.885Z,17.64
2019-04-28T07:53:00.230Z,17.65
2019-04-28T07:55:32.044Z,17.69
2019-04-28T07:58:03.796Z,17.81
2019-04-28T08:00:36.017Z,17.89
2019-04-28T08:03:07.847Z,17.86
2019-04-28T08:05:40.266Z,17.90
2019-04-28T08:08:12.070Z,18.01
2019-04-28T08:10:43.948Z,18.17
2019-04-28T08:13:15.684Z,18.38
2019-04-28T08:15:47.520Z,18.67
2019-04-28T08:18:19.280Z,18.96
2019-04-28T08:20:50.962Z,19.32
2019-04-28T08:23:22.692Z,19.16
2019-04-28T08:25:54.475Z,19.13
2019-04-28T08:28:26.303Z,19.28
2019-04-28T08:30:58.235Z,19.57
2019-04-28T08:33:40.395Z,19.95
2019-04-28T08:36:13.177Z,20.32
2019-04-28T08:38:45.025Z,20.61
2019-04-28T08:41:16.836Z,20.93
2019-04-28T08:43:48.489Z,21.08
2019-04-28T08:46:20.188Z,21.26
2019-04-28T08:48:52.017Z,21.29
2019-04-28T08:51:23.854Z,21.26
2019-04-28T08:53:55.523Z,21.55
2019-04-28T08:56:27.242Z,21.62
2019-04-28T08:58:59.066Z,21.74
2019-04-28T09:01:30.808Z,21.85
2019-04-28T09:04:14.769Z,22.14
2019-04-28T09:06:36.991Z,22.39
2019-04-28T09:09:13.969Z,22.75
2019-04-28T09:11:45.777Z,22.90
2019-04-28T09:14:17.624Z,22.89
2019-04-28T09:16:50.486Z,23.19
2019-04-28T09:19:22.466Z,23.07
2019-04-28T09:21:54.365Z,23.19
2019-04-28T09:24:26.217Z,23.33
2019-04-28T09:26:58.121Z,23.39
2019-04-28T09:29:29.889Z,23.58
2019-04-28T09:32:01.537Z,23.48
2019-04-28T09:34:33.345Z,23.63
2019-04-28T09:37:05.246Z,23.66
2019-04-28T09:39:50.442Z,23.92
2019-04-28T09:42:48.478Z,23.93
2019-04-28T09:45:23.254Z,24.10
2019-04-28T09:47:55.161Z,24.11
2019-04-28T09:50:26.864Z,24.54
2019-04-28T09:52:58.862Z,24.43
2019-04-28T09:55:30.633Z,24.61
2019-04-28T09:58:03.480Z,24.82
2019-04-28T10:00:35.399Z,24.93
2019-04-28T10:03:11.519Z,25.05
2019-04-28T10:05:43.214Z,25.20
2019-04-28T10:08:15.072Z,25.37
2019-04-28T10:10:46.751Z,25.51
2019-04-28T10:13:18.599Z,25.75
2019-04-28T10:15:50.373Z,25.98
2019-04-28T10:18:22.182Z,26.21
2019-04-28T10:20:54.991Z,26.46
2019-04-28T10:23:26.902Z,26.67
2019-04-28T10:25:58.739Z,26.52
2019-04-28T10:28:30.523Z,26.39
2019-04-28T10:31:02.239Z,26.69
2019-04-28T10:33:33.963Z,26.76
2019-04-28T10:36:05.821Z,26.58
2019-04-28T10:38:39.337Z,26.82
2019-04-28T10:41:20.854Z,26.81
2019-04-28T10:43:52.702Z,26.74
2019-04-28T10:46:24.486Z,27.10
2019-04-28T10:48:56.755Z,27.28
2019-04-28T10:51:28.483Z,27.45
2019-04-28T10:54:00.387Z,27.39
2019-04-28T10:56:32.221Z,27.30
2019-04-28T10:59:05.134Z,27.00
2019-04-28T11:01:37.152Z,26.87
2019-04-28T11:04:11.659Z,26.90
2019-04-28T11:06:43.432Z,27.22
2019-04-28T11:09:30.649Z,26.95
2019-04-28T11:12:00.496Z,27.00
2019-04-28T11:14:32.227Z,27.11
2019-04-28T11:17:04.185Z,26.68
2019-04-28T11:19:35.854Z,27.00
2019-04-28T11:22:07.812Z,27.52
2019-04-28T11:24:39.555Z,27.51
2019-04-28T11:27:11.798Z,27.43
2019-04-28T11:29:43.539Z,27.73
2019-04-28T11:32:18.717Z,28.03
2019-04-28T11:34:59.397Z,27.90
2019-04-28T11:37:31.177Z,27.87
2019-04-28T11:40:08.106Z,27.72
2019-04-28T11:42:43.035Z,27.44
2019-04-28T11:45:15.004Z,27.72
2019-04-28T11:47:48.175Z,26.83
2019-04-28T11:50:20.050Z,27.05
2019-04-28T11:52:51.771Z,27.33
2019-04-28T11:55:23.539Z,27.56
2019-04-28T11:57:56.233Z,26.75
2019-04-28T12:00:33.478Z,27.08
2019-04-28T12:03:05.516Z,27.38
2019-04-28T12:05:43.344Z,27.23
2019-04-28T12:08:15.455Z,26.96
2019-04-28T12:10:54.845Z,26.42
2019-04-28T12:13:48.793Z,26.57
2019-04-28T12:16:39.030Z,26.82
2019-04-28T12:19:41.991Z,27.06
2019-04-28T12:22:13.821Z,27.34
2019-04-28T12:24:45.851Z,27.03
2019-04-28T12:27:17.719Z,27.26
2019-04-28T12:29:49.558Z,27.33
2019-04-28T12:32:21.476Z,27.44
2019-04-28T12:34:53.376Z,27.36
2019-04-28T12:37:25.238Z,27.14
2019-04-28T12:39:57.312Z,27.25
2019-04-28T12:42:30.207Z,27.06
2019-04-28T12:45:02.055Z,27.01
2019-04-28T12:47:34.134Z,26.56
2019-04-28T12:50:15.507Z,26.57
2019-04-28T12:52:47.287Z,26.24
2019-04-28T12:55:19.102Z,26.13
2019-04-28T12:57:50.952Z,25.97
2019-04-28T13:00:33.553Z,25.88
2019-04-28T13:03:42.444Z,25.80
2019-04-28T13:06:16.140Z,25.67
2019-04-28T13:08:50.004Z,25.55
2019-04-28T13:11:21.915Z,25.43
2019-04-28T13:13:54.957Z,25.30
2019-04-28T13:16:26.768Z,25.18
2019-04-28T13:18:58.736Z,25.08
2019-04-28T13:21:30.548Z,25.07
2019-04-28T13:24:02.806Z,24.86
2019-04-28T13:26:34.525Z,24.54
2019-04-28T13:29:06.762Z,24.09
2019-04-28T13:31:39.618Z,24.05
2019-04-28T13:34:14.013Z,24.06
2019-04-28T13:36:45.836Z,24.17
2019-04-28T13:39:25.367Z,24.06
2019-04-28T13:41:57.154Z,24.03
2019-04-28T13:44:45.905Z,23.74
2019-04-28T13:47:18.136Z,23.10
2019-04-28T13:49:57.414Z,22.80
2019-04-28T13:52:30.236Z,22.49
2019-04-28T13:55:26.774Z,22.39
2019-04-28T13:58:00.173Z,22.01
2019-04-28T14:01:01.041Z,21.49
2019-04-28T14:03:49.973Z,21.08
2019-04-28T14:06:28.343Z,21.05
2019-04-28T14:08:56.259Z,21.43
2019-04-28T14:11:28.077Z,21.57
2019-04-28T14:14:00.091Z,21.53
2019-04-28T14:16:31.918Z,21.14
2019-04-28T14:19:03.825Z,20.95
2019-04-28T14:21:35.599Z,20.81
2019-04-28T14:24:07.698Z,20.54
2019-04-28T14:26:40.252Z,20.50
2019-04-28T14:29:11.956Z,20.36
2019-04-28T14:31:44.301Z,20.27
2019-04-28T14:34:17.070Z,20.15
2019-04-28T14:36:51.475Z,19.98
2019-04-28T14:39:24.083Z,19.77
2019-04-28T14:41:57.706Z,19.47
2019-04-28T14:44:29.588Z,19.22
2019-04-28T14:47:01.295Z,19.20
2019-04-28T14:49:33.890Z,19.05
2019-04-28T14:52:05.802Z,19.09
2019-04-28T14:54:37.980Z,19.16
2019-04-28T14:57:10.106Z,19.18
2019-04-28T14:59:42.994Z,18.94
2019-04-28T15:02:42.303Z,18.98
2019-04-28T15:05:47.779Z,18.96
2019-04-28T15:08:43.938Z,18.89
2019-04-28T15:11:37.575Z,18.67
2019-04-28T15:14:09.346Z,18.74
2019-04-28T15:16:41.199Z,18.56
2019-04-28T15:19:13.137Z,18.47
2019-04-28T15:21:44.761Z,18.52
2019-04-28T15:24:16.591Z,18.49
2019-04-28T15:26:48.530Z,18.48
2019-04-28T15:29:20.248Z,18.54
2019-04-28T15:31:52.002Z,18.70
2019-04-28T15:34:23.673Z,18.77
2019-04-28T15:37:09.255Z,18.80
2019-04-28T15:39:30.891Z,18.95
2019-04-28T15:42:02.736Z,19.08
2019-04-28T15:44:34.520Z,18.99
2019-04-28T15:47:06.885Z,19.00
2019-04-28T15:49:39.618Z,19.04
2019-04-28T15:52:14.167Z,19.13
2019-04-28T15:54:48.457Z,19.16
2019-04-28T15:57:20.312Z,19.18
2019-04-28T15:59:52.489Z,19.34
2019-04-28T16:02:24.195Z,19.37
2019-04-28T16:04:56.277Z,19.49
2019-04-28T16:07:28.097Z,19.45
2019-04-28T16:09:59.834Z,19.28
2019-04-28T16:12:31.698Z,19.33
2019-04-28T16:15:03.493Z,19.38
2019-04-28T16:17:35.440Z,19.33
2019-04-28T16:20:07.419Z,19.45
2019-04-28T16:22:39.069Z,19.56
2019-04-28T16:25:10.706Z,19.56
2019-04-28T16:27:43.021Z,19.56
2019-04-28T16:30:15.004Z,19.49
2019-04-28T16:32:47.257Z,19.44
2019-04-28T16:35:19.082Z,19.40
2019-04-28T16:37:50.866Z,19.36
2019-04-28T16:40:47.570Z,19.31
2019-04-28T16:43:47.195Z,19.30
2019-04-28T16:46:20.512Z,19.24
2019-04-28T16:48:53.391Z,19.25
2019-04-28T16:51:25.109Z,19.22
2019-04-28T16:53:59.215Z,19.20
2019-04-28T16:57:01.708Z,19.19
2019-04-28T17:00:01.422Z,19.14
2019-04-28T17:02:37.720Z,19.13
2019-04-28T17:05:09.850Z,19.05
2019-04-28T17:07:52.549Z,18.98
2019-04-28T17:10:18.333Z,18.96
2019-04-28T17:12:50.108Z,18.82
2019-04-28T17:15:21.940Z,18.79
2019-04-28T17:17:53.648Z,18.76
2019-04-28T17:20:25.558Z,18.70
2019-04-28T17:22:57.273Z,18.65
2019-04-28T17:25:28.993Z,18.61
2019-04-28T17:28:00.834Z,18.50
2019-04-28T17:30:32.736Z,18.45
2019-04-28T17:33:07.363Z,18.36
2019-04-28T17:35:39.127Z,18.27
2019-04-28T17:38:10.791Z,18.16
2019-04-28T17:40:42.647Z,18.00
2019-04-28T17:43:14.479Z,17.92
2019-04-28T17:45:47.083Z,17.75
2019-04-28T17:48:24.137Z,17.66
2019-04-28T17:50:55.845Z,17.51
2019-04-28T17:53:27.575Z,17.43
2019-04-28T17:56:00.387Z,17.39
2019-04-28T17:58:32.132Z,17.43
2019-04-28T18:01:11.656Z,17.42
2019-04-28T18:03:58.044Z,17.45
2019-04-28T18:06:30.395Z,17.44
2019-04-28T18:09:02.080Z,17.45
2019-04-28T18:11:35.349Z,17.48
2019-04-28T18:14:07.259Z,17.39
2019-04-28T18:16:54.520Z,17.29
2019-04-28T18:19:28.298Z,17.30
2019-04-28T18:22:01.148Z,17.25
2019-04-28T18:24:32.919Z,17.29
2019-04-28T18:27:04.843Z,17.13
2019-04-28T18:29:37.646Z,16.89
2019-04-28T18:32:28.337Z,16.95
2019-04-28T18:35:05.932Z,16.90
2019-04-28T18:37:56.483Z,16.85
2019-04-28T18:40:56.099Z,16.83
2019-04-28T18:43:47.329Z,16.79
2019-04-28T18:46:23.807Z,16.80
2019-04-28T18:48:55.675Z,16.85
2019-04-28T18:51:27.340Z,16.83
2019-04-28T18:53:59.192Z,16.80
2019-04-28T18:56:31.009Z,16.82
2019-04-28T18:59:02.957Z,16.76
2019-04-28T19:01:51.937Z,16.70
2019-04-28T19:04:24.970Z,16.54
2019-04-28T19:07:04.913Z,16.54
2019-04-28T19:09:51.944Z,16.51
2019-04-28T19:12:27.792Z,16.46
2019-04-28T19:15:28.195Z,16.47
2019-04-28T19:18:09.955Z,16.42
2019-04-28T19:20:41.706Z,16.42
2019-04-28T19:23:13.461Z,16.34
2019-04-28T19:25:45.161Z,16.33
2019-04-28T19:28:16.878Z,16.24
2019-04-28T19:30:48.601Z,16.11
2019-04-28T19:33:20.498Z,16.14
2019-04-28T19:35:52.136Z,16.10
2019-04-28T19:38:23.891Z,16.10
2019-04-28T19:40:55.536Z,16.03
2019-04-28T19:43:27.281Z,16.02
2019-04-28T19:46:00.859Z,16.00
2019-04-28T19:48:32.741Z,15.95
2019-04-28T19:51:04.491Z,15.96
2019-04-28T19:53:36.335Z,15.93
2019-04-28T19:56:18.817Z,15.91
2019-04-28T19:58:55.350Z,15.81
2019-04-28T20:01:28.964Z,15.79
2019-04-28T20:04:00.784Z,15.78
2019-04-28T20:06:32.600Z,15.77
2019-04-28T20:09:06.101Z,15.71
2019-04-28T20:11:39.403Z,15.74
2019-04-28T20:14:11.144Z,15.72
2019-04-28T20:16:44.166Z,15.72
2019-04-28T20:19:15.991Z,15.72
2019-04-28T20:21:48.676Z,15.67
2019-04-28T20:24:20.436Z,15.61
2019-04-28T20:26:53.136Z,15.57
2019-04-28T20:29:25.020Z,15.51
2019-04-28T20:31:57.897Z,15.37
2019-04-28T20:34:30.993Z,15.29
2019-04-28T20:37:09.070Z,15.30
2019-04-28T20:39:43.006Z,15.29
2019-04-28T20:42:34.235Z,15.28
2019-04-28T20:45:06.148Z,15.33
2019-04-28T20:47:38.218Z,15.24
2019-04-28T20:50:09.966Z,15.18
2019-04-28T20:52:42.082Z,15.17
2019-04-28T20:55:13.931Z,15.05
2019-04-28T20:57:45.805Z,15.07
2019-04-28T21:00:17.551Z,14.98
2019-04-28T21:02:50.867Z,14.94
2019-04-28T21:05:22.569Z,14.96
2019-04-28T21:07:54.375Z,14.94
2019-04-28T21:10:37.309Z,14.94
2019-04-28T21:12:59.645Z,14.96
2019-04-28T21:15:31.424Z,14.98
2019-04-28T21:18:03.323Z,14.98
2019-04-28T21:20:35.060Z,14.91
2019-04-28T21:23:08.325Z,14.91
2019-04-28T21:25:40.136Z,14.96
2019-04-28T21:28:11.929Z,14.90
2019-04-28T21:30:43.657Z,14.89
2019-04-28T21:33:15.357Z,14.91
2019-04-28T21:35:47.067Z,14.90
2019-04-28T21:38:18.810Z,14.92
2019-04-28T21:40:51.116Z,14.83
2019-04-28T21:43:44.486Z,14.78
2019-04-28T21:46:33.259Z,14.80
2019-04-28T21:49:18.459Z,14.87
2019-04-28T21:51:50.305Z,14.95
2019-04-28T21:54:22.015Z,14.99
2019-04-28T21:56:53.768Z,15.05
2019-04-28T21:59:25.608Z,15.07
2019-04-28T22:01:57.619Z,15.01
2019-04-28T22:04:29.739Z,15.03
2019-04-28T22:07:01.339Z,15.16
2019-04-28T22:09:33.138Z,15.16
2019-04-28T22:12:05.125Z,15.18
2019-04-28T22:14:37.054Z,15.18
2019-04-28T22:17:08.612Z,15.13
2019-04-28T22:19:40.511Z,15.03
2019-04-28T22:22:12.224Z,15.07
2019-04-28T22:24:52.528Z,15.06
2019-04-28T22:27:33.433Z,15.02
2019-04-28T22:30:05.485Z,14.94
2019-04-28T22:32:37.399Z,14.95
2019-04-28T22:35:09.568Z,14.96
2019-04-28T22:37:41.108Z,14.84
2019-04-28T22:40:12.952Z,14.80
2019-04-28T22:42:44.571Z,14.73
2019-04-28T22:45:16.824Z,14.69
2019-04-28T22:47:48.365Z,14.67
2019-04-28T22:50:38.107Z,14.66
2019-04-28T22:53:10.090Z,14.73
2019-04-28T22:56:09.730Z,14.71
2019-04-28T22:58:49.431Z,14.69
2019-04-28T23:01:29.122Z,14.67
2019-04-28T23:04:19.757Z,14.65
2019-04-28T23:06:52.530Z,14.68
2019-04-28T23:09:24.350Z,14.70
2019-04-28T23:11:56.122Z,14.69
2019-04-28T23:14:27.896Z,14.75
2019-04-28T23:16:59.552Z,14.72
2019-04-28T23:19:33.843Z,14.69
2019-04-28T23:22:27.111Z,14.69
2019-04-28T23:24:59.479Z,14.70
2019-04-28T23:27:31.333Z,14.65
2019-04-28T23:30:03.122Z,14.61
2019-04-28T23:32:35.056Z,14.63
2019-04-28T23:35:07.024Z,14.69
2019-04-28T23:37:38.625Z,14.65
2019-04-28T23:40:10.269Z,14.57
2019-04-28T23:42:46.900Z,14.63
2019-04-28T23:45:18.534Z,14.62
2019-04-28T23:47:52.793Z,14.60
2019-04-28T23:50:31.435Z,14.59
2019-04-28T23:53:09.428Z,14.54
2019-04-28T23:55:41.384Z,14.50
2019-04-28T23:58:13.129Z,14.42
